sensor_id;sensor_type;location;lat;lon;timestamp;pressure;altitude;pressure_sealevel;temperature;humidity
12203;BME280;6164;42.178;24.622;2023-05-23T03:35:50;99394.44;;;13.28;100.00
12203;BME280;6164;42.178;24.622;2023-05-23T03:38:18;99391.78;;;13.28;100.00
12203;BME280;6164;42.178;24.622;2023-05-23T03:40:44;99396.22;;;13.42;100.00
12203;BME280;6164;42.178;24.622;2023-05-23T03:43:11;99376.88;;;13.48;100.00
12203;BME280;6164;42.178;24.622;2023-05-23T03:45:38;99391.13;;;13.68;100.00
12203;BME280;6164;42.178;24.622;2023-05-23T03:48:04;99389.53;;;13.74;100.00
12203;BME280;6164;42.178;24.622;2023-05-23T03:50:31;99390.41;;;13.87;100.00
12203;BME280;6164;42.178;24.622;2023-05-23T03:52:59;99389.28;;;13.96;100.00
12203;BME280;6164;42.178;24.622;2023-05-23T03:55:26;99386.25;;;14.06;100.00
12203;BME280;6164;42.178;24.622;2023-05-23T03:57:56;99385.47;;;14.12;100.00
12203;BME280;6164;42.178;24.622;2023-05-23T04:00:22;99385.34;;;14.20;100.00
12203;BME280;6164;42.178;24.622;2023-05-23T04:02:49;99389.69;;;14.27;100.00
12203;BME280;6164;42.178;24.622;2023-05-23T04:05:16;99393.41;;;14.33;100.00
12203;BME280;6164;42.178;24.622;2023-05-23T04:07:43;99389.34;;;14.43;100.00
12203;BME280;6164;42.178;24.622;2023-05-23T04:10:12;99389.16;;;14.51;100.00
12203;BME280;6164;42.178;24.622;2023-05-23T04:12:40;99395.97;;;14.61;100.00
12203;BME280;6164;42.178;24.622;2023-05-23T04:15:08;99387.78;;;14.56;100.00
12203;BME280;6164;42.178;24.622;2023-05-23T04:17:35;99394.94;;;14.62;100.00
12203;BME280;6164;42.178;24.622;2023-05-23T04:20:05;99384.31;;;14.62;100.00
12203;BME280;6164;42.178;24.622;2023-05-23T04:22:32;99393.72;;;14.58;100.00
12203;BME280;6164;42.178;24.622;2023-05-23T04:24:59;99395.56;;;14.64;100.00
12203;BME280;6164;42.178;24.622;2023-05-23T04:27:27;99400.28;;;14.68;100.00
12203;BME280;6164;42.178;24.622;2023-05-23T04:29:53;99396.00;;;14.74;100.00
12203;BME280;6164;42.178;24.622;2023-05-23T04:32:25;99394.78;;;14.83;100.00
12203;BME280;6164;42.178;24.622;2023-05-23T04:34:52;99390.75;;;14.93;100.00
12203;BME280;6164;42.178;24.622;2023-05-23T04:37:21;99393.81;;;14.97;100.00
12203;BME280;6164;42.178;24.622;2023-05-23T04:39:51;99390.16;;;15.04;100.00
12203;BME280;6164;42.178;24.622;2023-05-23T04:42:17;99387.91;;;15.08;100.00
12203;BME280;6164;42.178;24.622;2023-05-23T04:44:50;99385.69;;;15.24;100.00
12203;BME280;6164;42.178;24.622;2023-05-23T04:47:17;99382.63;;;15.34;100.00
12203;BME280;6164;42.178;24.622;2023-05-23T04:49:44;99386.53;;;15.38;100.00
12203;BME280;6164;42.178;24.622;2023-05-23T04:52:12;99379.38;;;15.38;100.00
12203;BME280;6164;42.178;24.622;2023-05-23T04:54:39;99362.78;;;15.36;100.00
12203;BME280;6164;42.178;24.622;2023-05-23T04:57:09;99378.38;;;15.59;100.00
12203;BME280;6164;42.178;24.622;2023-05-23T04:59:36;99385.13;;;15.68;100.00
12203;BME280;6164;42.178;24.622;2023-05-23T05:02:05;99384.91;;;15.76;100.00
12203;BME280;6164;42.178;24.622;2023-05-23T05:04:32;99373.00;;;15.85;100.00
12203;BME280;6164;42.178;24.622;2023-05-23T05:06:58;99378.50;;;16.03;100.00
12203;BME280;6164;42.178;24.622;2023-05-23T05:09:27;99388.78;;;16.06;100.00
12203;BME280;6164;42.178;24.622;2023-05-23T05:11:54;99380.75;;;16.19;100.00
12203;BME280;6164;42.178;24.622;2023-05-23T05:14:21;99382.72;;;16.37;100.00
12203;BME280;6164;42.178;24.622;2023-05-23T05:16:47;99377.00;;;16.46;100.00
12203;BME280;6164;42.178;24.622;2023-05-23T05:19:16;99382.91;;;16.55;100.00
12203;BME280;6164;42.178;24.622;2023-05-23T05:21:43;99385.34;;;16.56;100.00
12203;BME280;6164;42.178;24.622;2023-05-23T05:24:09;99388.84;;;16.57;100.00
12203;BME280;6164;42.178;24.622;2023-05-23T05:26:37;99386.94;;;16.70;100.00
12203;BME280;6164;42.178;24.622;2023-05-23T05:29:03;99385.00;;;16.84;100.00
12203;BME280;6164;42.178;24.622;2023-05-23T05:31:30;99385.81;;;16.91;100.00
12203;BME280;6164;42.178;24.622;2023-05-23T05:33:57;99388.47;;;16.91;100.00
12203;BME280;6164;42.178;24.622;2023-05-23T05:36:25;99390.88;;;16.99;100.00
12203;BME280;6164;42.178;24.622;2023-05-23T05:38:52;99390.00;;;17.05;100.00
12203;BME280;6164;42.178;24.622;2023-05-23T05:41:18;99404.78;;;17.07;100.00
12203;BME280;6164;42.178;24.622;2023-05-23T05:43:46;99390.41;;;17.08;100.00
12203;BME280;6164;42.178;24.622;2023-05-23T05:46:13;99390.31;;;17.22;100.00
12203;BME280;6164;42.178;24.622;2023-05-23T05:48:39;99396.78;;;17.39;100.00
12203;BME280;6164;42.178;24.622;2023-05-23T05:51:06;99391.59;;;17.50;100.00
12203;BME280;6164;42.178;24.622;2023-05-23T05:53:34;99392.25;;;17.70;100.00
12203;BME280;6164;42.178;24.622;2023-05-23T05:56:01;99392.94;;;17.84;100.00
12203;BME280;6164;42.178;24.622;2023-05-23T05:58:28;99394.28;;;17.93;100.00
12203;BME280;6164;42.178;24.622;2023-05-23T06:00:55;99374.56;;;17.94;100.00
12203;BME280;6164;42.178;24.622;2023-05-23T06:03:21;99391.09;;;18.02;100.00
12203;BME280;6164;42.178;24.622;2023-05-23T06:05:48;99382.16;;;18.15;100.00
12203;BME280;6164;42.178;24.622;2023-05-23T06:08:15;99393.53;;;18.28;100.00
12203;BME280;6164;42.178;24.622;2023-05-23T06:10:43;99387.75;;;18.50;100.00
12203;BME280;6164;42.178;24.622;2023-05-23T06:13:10;99391.50;;;18.60;100.00
12203;BME280;6164;42.178;24.622;2023-05-23T06:15:36;99386.25;;;18.54;100.00
12203;BME280;6164;42.178;24.622;2023-05-23T06:18:03;99381.94;;;18.34;100.00
12203;BME280;6164;42.178;24.622;2023-05-23T06:20:30;99380.69;;;18.55;100.00
12203;BME280;6164;42.178;24.622;2023-05-23T06:22:56;99379.88;;;18.55;100.00
12203;BME280;6164;42.178;24.622;2023-05-23T06:25:24;99373.84;;;18.59;100.00
12203;BME280;6164;42.178;24.622;2023-05-23T06:27:52;99372.63;;;18.73;100.00
12203;BME280;6164;42.178;24.622;2023-05-23T06:30:19;99373.88;;;18.89;100.00
12203;BME280;6164;42.178;24.622;2023-05-23T06:32:46;99373.00;;;19.06;100.00
12203;BME280;6164;42.178;24.622;2023-05-23T06:35:13;99370.59;;;19.16;100.00
12203;BME280;6164;42.178;24.622;2023-05-23T06:37:40;99360.97;;;19.27;100.00
12203;BME280;6164;42.178;24.622;2023-05-23T06:40:10;99364.63;;;19.55;100.00
12203;BME280;6164;42.178;24.622;2023-05-23T06:42:37;99369.69;;;19.75;100.00
12203;BME280;6164;42.178;24.622;2023-05-23T06:45:06;99368.75;;;19.81;100.00
12203;BME280;6164;42.178;24.622;2023-05-23T06:47:33;99362.09;;;19.84;100.00
12203;BME280;6164;42.178;24.622;2023-05-23T06:50:00;99361.53;;;20.05;100.00
12203;BME280;6164;42.178;24.622;2023-05-23T06:52:27;99352.06;;;20.25;100.00
12203;BME280;6164;42.178;24.622;2023-05-23T06:54:54;99358.22;;;20.37;100.00
12203;BME280;6164;42.178;24.622;2023-05-23T06:57:20;99357.97;;;20.50;100.00
12203;BME280;6164;42.178;24.622;2023-05-23T06:59:47;99365.50;;;20.65;100.00
12203;BME280;6164;42.178;24.622;2023-05-23T07:02:15;99356.38;;;20.66;100.00
12203;BME280;6164;42.178;24.622;2023-05-23T07:04:42;99351.06;;;20.82;100.00
12203;BME280;6164;42.178;24.622;2023-05-23T07:07:09;99361.50;;;20.95;97.74
12203;BME280;6164;42.178;24.622;2023-05-23T07:09:36;99355.56;;;21.05;97.20
12203;BME280;6164;42.178;24.622;2023-05-23T07:12:03;99355.50;;;21.17;98.65
12203;BME280;6164;42.178;24.622;2023-05-23T07:14:30;99354.19;;;21.19;100.00
12203;BME280;6164;42.178;24.622;2023-05-23T07:16:59;99346.38;;;21.34;98.55
12203;BME280;6164;42.178;24.622;2023-05-23T07:19:27;99340.84;;;21.41;96.89
12203;BME280;6164;42.178;24.622;2023-05-23T07:21:54;99338.66;;;21.38;96.76
12203;BME280;6164;42.178;24.622;2023-05-23T07:24:21;99345.41;;;21.40;96.52
12203;BME280;6164;42.178;24.622;2023-05-23T07:26:48;99343.38;;;21.47;96.07
12203;BME280;6164;42.178;24.622;2023-05-23T07:29:14;99343.38;;;21.47;98.40
12203;BME280;6164;42.178;24.622;2023-05-23T07:31:41;99341.44;;;21.59;97.33
12203;BME280;6164;42.178;24.622;2023-05-23T07:34:08;99341.59;;;21.53;96.97
12203;BME280;6164;42.178;24.622;2023-05-23T07:36:36;99330.38;;;21.56;95.42
12203;BME280;6164;42.178;24.622;2023-05-23T07:39:05;99344.09;;;21.76;94.36
12203;BME280;6164;42.178;24.622;2023-05-23T07:41:32;99346.56;;;21.61;93.62
12203;BME280;6164;42.178;24.622;2023-05-23T07:43:59;99332.38;;;21.65;95.22
12203;BME280;6164;42.178;24.622;2023-05-23T07:46:25;99332.22;;;21.72;97.41
12203;BME280;6164;42.178;24.622;2023-05-23T07:48:52;99330.47;;;21.77;96.96
12203;BME280;6164;42.178;24.622;2023-05-23T07:51:19;99336.13;;;21.97;97.73
12203;BME280;6164;42.178;24.622;2023-05-23T07:53:47;99340.56;;;22.08;92.64
12203;BME280;6164;42.178;24.622;2023-05-23T07:56:14;99350.81;;;22.11;85.68
12203;BME280;6164;42.178;24.622;2023-05-23T07:58:41;99334.25;;;22.19;86.34
12203;BME280;6164;42.178;24.622;2023-05-23T08:01:08;99330.88;;;22.29;87.29
12203;BME280;6164;42.178;24.622;2023-05-23T08:03:34;99334.72;;;22.33;86.77
12203;BME280;6164;42.178;24.622;2023-05-23T08:06:01;99339.91;;;22.40;82.89
12203;BME280;6164;42.178;24.622;2023-05-23T08:08:28;99333.94;;;22.38;82.90
12203;BME280;6164;42.178;24.622;2023-05-23T08:10:56;99325.06;;;22.59;86.05
12203;BME280;6164;42.178;24.622;2023-05-23T08:13:23;99337.09;;;22.73;85.96
12203;BME280;6164;42.178;24.622;2023-05-23T08:15:50;99339.00;;;22.77;79.48
12203;BME280;6164;42.178;24.622;2023-05-23T08:18:21;99336.63;;;22.81;76.32
12203;BME280;6164;42.178;24.622;2023-05-23T08:20:48;99331.09;;;22.92;78.22
12203;BME280;6164;42.178;24.622;2023-05-23T08:23:15;99329.28;;;22.98;76.14
12203;BME280;6164;42.178;24.622;2023-05-23T08:25:42;99326.34;;;22.99;73.21
12203;BME280;6164;42.178;24.622;2023-05-23T08:28:10;99325.88;;;23.07;74.54
12203;BME280;6164;42.178;24.622;2023-05-23T08:30:37;99322.19;;;23.18;75.48
12203;BME280;6164;42.178;24.622;2023-05-23T08:33:03;99328.97;;;23.21;71.66
12203;BME280;6164;42.178;24.622;2023-05-23T08:35:31;99325.50;;;23.25;72.59
12203;BME280;6164;42.178;24.622;2023-05-23T08:37:59;99328.88;;;23.37;71.07
12203;BME280;6164;42.178;24.622;2023-05-23T08:40:30;99329.53;;;23.55;71.08
12203;BME280;6164;42.178;24.622;2023-05-23T08:42:57;99327.44;;;23.62;69.66
12203;BME280;6164;42.178;24.622;2023-05-23T08:45:25;99331.84;;;23.78;68.19
12203;BME280;6164;42.178;24.622;2023-05-23T08:47:54;99329.69;;;23.80;68.87
12203;BME280;6164;42.178;24.622;2023-05-23T08:50:22;99338.13;;;23.88;66.55
12203;BME280;6164;42.178;24.622;2023-05-23T08:52:54;99339.25;;;23.97;66.37
12203;BME280;6164;42.178;24.622;2023-05-23T08:55:21;99328.53;;;24.07;65.99
12203;BME280;6164;42.178;24.622;2023-05-23T08:57:49;99360.34;;;24.05;60.64
12203;BME280;6164;42.178;24.622;2023-05-23T09:00:18;99376.19;;;23.97;56.99
12203;BME280;6164;42.178;24.622;2023-05-23T09:02:46;99361.72;;;24.08;59.03
12203;BME280;6164;42.178;24.622;2023-05-23T09:05:13;99334.00;;;24.17;62.68
12203;BME280;6164;42.178;24.622;2023-05-23T09:07:40;99298.13;;;24.22;66.25
12203;BME280;6164;42.178;24.622;2023-05-23T09:10:08;99340.25;;;24.28;60.68
12203;BME280;6164;42.178;24.622;2023-05-23T09:12:36;99334.03;;;24.27;61.58
12203;BME280;6164;42.178;24.622;2023-05-23T09:15:03;99333.31;;;24.47;61.32
12203;BME280;6164;42.178;24.622;2023-05-23T09:17:30;99346.00;;;24.51;59.34
12203;BME280;6164;42.178;24.622;2023-05-23T09:19:58;99328.88;;;24.78;61.48
12203;BME280;6164;42.178;24.622;2023-05-23T09:22:26;99361.25;;;24.78;56.39
12203;BME280;6164;42.178;24.622;2023-05-23T09:24:54;99348.28;;;24.80;56.52
12203;BME280;6164;42.178;24.622;2023-05-23T09:27:21;99381.22;;;24.77;53.74
12203;BME280;6164;42.178;24.622;2023-05-23T09:29:49;99379.13;;;24.94;52.74
12203;BME280;6164;42.178;24.622;2023-05-23T09:32:16;99382.91;;;25.03;52.64
12203;BME280;6164;42.178;24.622;2023-05-23T09:34:54;99364.59;;;25.20;54.33
12203;BME280;6164;42.178;24.622;2023-05-23T09:37:29;99355.72;;;25.39;53.81
12203;BME280;6164;42.178;24.622;2023-05-23T09:39:58;99394.59;;;25.33;51.35
12203;BME280;6164;42.178;24.622;2023-05-23T09:42:25;99392.16;;;25.32;50.80
12203;BME280;6164;42.178;24.622;2023-05-23T09:44:57;99387.59;;;25.37;51.91
12203;BME280;6164;42.178;24.622;2023-05-23T09:47:27;99362.97;;;25.19;53.16
12203;BME280;6164;42.178;24.622;2023-05-23T09:49:54;99358.38;;;25.29;53.85
12203;BME280;6164;42.178;24.622;2023-05-23T09:52:21;99377.81;;;25.21;51.51
12203;BME280;6164;42.178;24.622;2023-05-23T09:54:49;99369.72;;;25.26;52.23
12203;BME280;6164;42.178;24.622;2023-05-23T09:57:15;99407.81;;;25.20;49.87
12203;BME280;6164;42.178;24.622;2023-05-23T09:59:50;99369.44;;;25.28;52.49
12203;BME280;6164;42.178;24.622;2023-05-23T10:02:35;99392.69;;;25.24;49.44
12203;BME280;6164;42.178;24.622;2023-05-23T10:05:08;99372.19;;;25.43;51.27
12203;BME280;6164;42.178;24.622;2023-05-23T10:07:40;99424.66;;;25.42;47.70
12203;BME280;6164;42.178;24.622;2023-05-23T10:10:11;99424.66;;;25.42;47.13
12203;BME280;6164;42.178;24.622;2023-05-23T10:12:41;99431.06;;;25.26;47.44
12203;BME280;6164;42.178;24.622;2023-05-23T10:15:12;99390.59;;;25.51;49.17
12203;BME280;6164;42.178;24.622;2023-05-23T10:18:04;99358.41;;;25.64;49.70
12203;BME280;6164;42.178;24.622;2023-05-23T10:20:33;99395.16;;;25.75;48.58
12203;BME280;6164;42.178;24.622;2023-05-23T10:23:02;99388.16;;;25.84;48.35
12203;BME280;6164;42.178;24.622;2023-05-23T10:25:31;99400.31;;;25.87;47.41
12203;BME280;6164;42.178;24.622;2023-05-23T10:27:59;99387.88;;;25.91;48.63
12203;BME280;6164;42.178;24.622;2023-05-23T10:30:26;99407.09;;;25.89;46.74
12203;BME280;6164;42.178;24.622;2023-05-23T10:32:53;99414.63;;;25.98;47.44
12203;BME280;6164;42.178;24.622;2023-05-23T10:35:27;99377.31;;;26.05;49.42
12203;BME280;6164;42.178;24.622;2023-05-23T10:38:03;99377.50;;;26.33;47.96
12203;BME280;6164;42.178;24.622;2023-05-23T10:40:44;99402.34;;;26.55;45.82
12203;BME280;6164;42.178;24.622;2023-05-23T10:43:16;99425.31;;;26.78;45.85
12203;BME280;6164;42.178;24.622;2023-05-23T10:45:44;99418.81;;;26.74;45.33
12203;BME280;6164;42.178;24.622;2023-05-23T10:48:21;99418.19;;;26.92;45.83
12203;BME280;6164;42.178;24.622;2023-05-23T10:51:02;99431.91;;;27.10;44.95
12203;BME280;6164;42.178;24.622;2023-05-23T10:53:30;99447.31;;;27.15;44.26
12203;BME280;6164;42.178;24.622;2023-05-23T10:56:00;99430.69;;;27.37;45.05
12203;BME280;6164;42.178;24.622;2023-05-23T10:58:30;99443.38;;;27.51;43.79
12203;BME280;6164;42.178;24.622;2023-05-23T11:00:59;99435.56;;;27.78;43.85
12203;BME280;6164;42.178;24.622;2023-05-23T11:03:30;99452.03;;;27.92;42.81
12203;BME280;6164;42.178;24.622;2023-05-23T11:06:00;99463.78;;;28.11;42.04
12203;BME280;6164;42.178;24.622;2023-05-23T11:08:37;99458.56;;;28.19;43.04
12203;BME280;6164;42.178;24.622;2023-05-23T11:11:07;99445.91;;;28.10;42.40
12203;BME280;6164;42.178;24.622;2023-05-23T11:13:55;99464.69;;;28.30;43.04
12203;BME280;6164;42.178;24.622;2023-05-23T11:16:29;99434.38;;;28.52;43.35
12203;BME280;6164;42.178;24.622;2023-05-23T11:19:20;99469.69;;;28.52;41.85
12203;BME280;6164;42.178;24.622;2023-05-23T11:21:49;99471.88;;;28.50;41.84
12203;BME280;6164;42.178;24.622;2023-05-23T11:24:17;99476.03;;;28.66;41.78
12203;BME280;6164;42.178;24.622;2023-05-23T11:26:52;99457.28;;;28.88;43.00
12203;BME280;6164;42.178;24.622;2023-05-23T11:29:24;99484.47;;;28.88;41.27
12203;BME280;6164;42.178;24.622;2023-05-23T11:31:51;99501.44;;;28.98;40.28
12203;BME280;6164;42.178;24.622;2023-05-23T11:34:18;99489.09;;;29.11;40.60
12203;BME280;6164;42.178;24.622;2023-05-23T11:36:46;99530.78;;;29.25;38.61
12203;BME280;6164;42.178;24.622;2023-05-23T11:39:13;99540.34;;;29.22;38.72
12203;BME280;6164;42.178;24.622;2023-05-23T11:41:41;99519.25;;;29.33;39.80
12203;BME280;6164;42.178;24.622;2023-05-23T11:44:12;99509.78;;;29.49;39.75
12203;BME280;6164;42.178;24.622;2023-05-23T11:46:39;99499.22;;;29.66;39.60
12203;BME280;6164;42.178;24.622;2023-05-23T11:49:11;99511.56;;;29.77;38.78
12203;BME280;6164;42.178;24.622;2023-05-23T11:51:38;99526.03;;;29.54;38.79
12203;BME280;6164;42.178;24.622;2023-05-23T11:54:05;99499.13;;;29.52;40.57
12203;BME280;6164;42.178;24.622;2023-05-23T11:56:38;99465.06;;;29.92;41.38
12203;BME280;6164;42.178;24.622;2023-05-23T11:59:08;99493.69;;;30.22;38.86
12203;BME280;6164;42.178;24.622;2023-05-23T12:01:37;99496.59;;;30.44;39.05
12203;BME280;6164;42.178;24.622;2023-05-23T12:04:09;99509.03;;;30.50;38.76
12203;BME280;6164;42.178;24.622;2023-05-23T12:06:38;99549.94;;;30.31;36.29
12203;BME280;6164;42.178;24.622;2023-05-23T12:09:10;99562.78;;;29.75;36.97
12203;BME280;6164;42.178;24.622;2023-05-23T12:11:39;99528.97;;;29.39;39.77
12203;BME280;6164;42.178;24.622;2023-05-23T12:14:07;99485.84;;;29.32;40.45
12203;BME280;6164;42.178;24.622;2023-05-23T12:16:34;99499.66;;;29.54;39.33
12203;BME280;6164;42.178;24.622;2023-05-23T12:19:04;99489.16;;;29.67;39.31
12203;BME280;6164;42.178;24.622;2023-05-23T12:21:41;99480.72;;;29.68;39.22
12203;BME280;6164;42.178;24.622;2023-05-23T12:24:13;99465.59;;;29.94;40.74
12203;BME280;6164;42.178;24.622;2023-05-23T12:26:52;99457.81;;;29.88;40.49
12203;BME280;6164;42.178;24.622;2023-05-23T12:29:28;99391.66;;;29.55;45.51
12203;BME280;6164;42.178;24.622;2023-05-23T12:31:57;99301.28;;;29.26;46.88
12203;BME280;6164;42.178;24.622;2023-05-23T12:34:25;99327.66;;;29.44;46.48
12203;BME280;6164;42.178;24.622;2023-05-23T12:36:53;99295.56;;;29.41;45.99
12203;BME280;6164;42.178;24.622;2023-05-23T12:39:24;99312.34;;;29.48;46.00
12203;BME280;6164;42.178;24.622;2023-05-23T12:41:52;99316.28;;;29.55;45.97
12203;BME280;6164;42.178;24.622;2023-05-23T12:44:20;99340.59;;;29.33;43.68
12203;BME280;6164;42.178;24.622;2023-05-23T12:46:47;99344.84;;;29.39;44.54
12203;BME280;6164;42.178;24.622;2023-05-23T12:49:14;99321.63;;;29.60;45.82
12203;BME280;6164;42.178;24.622;2023-05-23T12:51:42;99294.06;;;29.81;46.42
12203;BME280;6164;42.178;24.622;2023-05-23T12:54:09;99309.22;;;29.87;44.48
12203;BME280;6164;42.178;24.622;2023-05-23T12:56:35;99318.38;;;29.77;44.65
12203;BME280;6164;42.178;24.622;2023-05-23T12:59:02;99324.66;;;29.91;44.10
12203;BME280;6164;42.178;24.622;2023-05-23T13:01:29;99320.13;;;29.87;44.08
12203;BME280;6164;42.178;24.622;2023-05-23T13:03:58;99323.84;;;30.04;43.88
12203;BME280;6164;42.178;24.622;2023-05-23T13:06:25;99333.44;;;30.15;43.16
12203;BME280;6164;42.178;24.622;2023-05-23T13:08:53;99334.75;;;30.18;43.07
12203;BME280;6164;42.178;24.622;2023-05-23T13:11:20;99338.19;;;30.23;43.68
12203;BME280;6164;42.178;24.622;2023-05-23T13:13:46;99328.31;;;30.41;43.78
12203;BME280;6164;42.178;24.622;2023-05-23T13:16:14;99353.25;;;30.34;42.15
12203;BME280;6164;42.178;24.622;2023-05-23T13:18:41;99360.50;;;30.52;42.09
12203;BME280;6164;42.178;24.622;2023-05-23T13:21:08;99387.03;;;30.60;41.08
12203;BME280;6164;42.178;24.622;2023-05-23T13:23:35;99400.97;;;30.72;39.97
12203;BME280;6164;42.178;24.622;2023-05-23T13:26:05;99404.56;;;30.68;39.36
12203;BME280;6164;42.178;24.622;2023-05-23T13:28:32;99405.41;;;30.82;39.85
12203;BME280;6164;42.178;24.622;2023-05-23T13:30:59;99438.03;;;30.87;36.75
12203;BME280;6164;42.178;24.622;2023-05-23T13:33:27;99478.38;;;30.71;36.02
12203;BME280;6164;42.178;24.622;2023-05-23T13:35:54;99491.53;;;30.83;35.47
12203;BME280;6164;42.178;24.622;2023-05-23T13:38:22;99464.44;;;30.73;37.52
12203;BME280;6164;42.178;24.622;2023-05-23T13:40:48;99473.56;;;30.82;36.35
12203;BME280;6164;42.178;24.622;2023-05-23T13:43:17;99446.97;;;30.87;37.07
12203;BME280;6164;42.178;24.622;2023-05-23T13:45:44;99476.97;;;30.87;36.58
12203;BME280;6164;42.178;24.622;2023-05-23T13:48:11;99460.22;;;30.94;37.12
12203;BME280;6164;42.178;24.622;2023-05-23T13:50:38;99492.91;;;31.08;35.52
12203;BME280;6164;42.178;24.622;2023-05-23T13:53:04;99500.28;;;31.21;35.93
12203;BME280;6164;42.178;24.622;2023-05-23T13:55:38;99471.50;;;31.28;38.52
12203;BME280;6164;42.178;24.622;2023-05-23T13:58:05;99461.69;;;31.41;37.37
12203;BME280;6164;42.178;24.622;2023-05-23T14:00:33;99492.47;;;31.55;36.34
12203;BME280;6164;42.178;24.622;2023-05-23T14:03:00;99510.75;;;31.54;36.14
12203;BME280;6164;42.178;24.622;2023-05-23T14:05:26;99494.50;;;31.49;36.44
12203;BME280;6164;42.178;24.622;2023-05-23T14:07:53;99529.25;;;31.30;35.89
12203;BME280;6164;42.178;24.622;2023-05-23T14:10:20;99433.66;;;30.59;41.30
12203;BME280;6164;42.178;24.622;2023-05-23T14:12:47;99380.75;;;30.19;44.02
12203;BME280;6164;42.178;24.622;2023-05-23T14:15:15;99334.34;;;29.33;45.69
12203;BME280;6164;42.178;24.622;2023-05-23T14:17:43;99307.75;;;28.93;46.59
12203;BME280;6164;42.178;24.622;2023-05-23T14:20:10;99310.59;;;28.22;45.89
12203;BME280;6164;42.178;24.622;2023-05-23T14:22:37;99310.28;;;27.71;45.65
12203;BME280;6164;42.178;24.622;2023-05-23T14:25:04;99294.28;;;27.46;47.02
12203;BME280;6164;42.178;24.622;2023-05-23T14:27:31;99216.88;;;27.30;50.85
12203;BME280;6164;42.178;24.622;2023-05-23T14:29:59;99199.00;;;27.29;52.40
12203;BME280;6164;42.178;24.622;2023-05-23T14:32:26;99171.25;;;27.08;55.08
12203;BME280;6164;42.178;24.622;2023-05-23T14:34:54;99195.38;;;26.76;53.07
12203;BME280;6164;42.178;24.622;2023-05-23T14:37:20;99195.44;;;26.61;52.35
12203;BME280;6164;42.178;24.622;2023-05-23T14:39:47;99218.91;;;26.37;51.13
12203;BME280;6164;42.178;24.622;2023-05-23T14:42:14;99232.78;;;26.21;48.90
12203;BME280;6164;42.178;24.622;2023-05-23T14:44:40;99235.53;;;26.16;48.81
12203;BME280;6164;42.178;24.622;2023-05-23T14:47:07;99266.13;;;26.11;47.26
12203;BME280;6164;42.178;24.622;2023-05-23T14:49:34;99273.69;;;26.09;46.35
12203;BME280;6164;42.178;24.622;2023-05-23T14:52:02;99238.06;;;25.72;52.28
12203;BME280;6164;42.178;24.622;2023-05-23T14:54:29;99134.66;;;25.31;60.07
12203;BME280;6164;42.178;24.622;2023-05-23T14:56:56;99122.56;;;24.94;60.36
12203;BME280;6164;42.178;24.622;2023-05-23T14:59:23;99122.03;;;24.36;58.55
12203;BME280;6164;42.178;24.622;2023-05-23T15:01:50;99124.19;;;24.34;58.02
12203;BME280;6164;42.178;24.622;2023-05-23T15:04:16;99073.97;;;24.53;69.70
12203;BME280;6164;42.178;24.622;2023-05-23T15:06:43;99140.91;;;24.66;57.07
12203;BME280;6164;42.178;24.622;2023-05-23T15:09:12;99156.59;;;24.69;57.01
12203;BME280;6164;42.178;24.622;2023-05-23T15:11:39;99144.94;;;24.29;58.58
12203;BME280;6164;42.178;24.622;2023-05-23T15:14:06;99128.38;;;23.85;60.43
12203;BME280;6164;42.178;24.622;2023-05-23T15:16:33;99120.50;;;23.69;61.66
12203;BME280;6164;42.178;24.622;2023-05-23T15:19:01;99116.69;;;23.65;62.17
12203;BME280;6164;42.178;24.622;2023-05-23T15:21:27;99105.16;;;23.79;65.21
12203;BME280;6164;42.178;24.622;2023-05-23T15:23:54;99115.91;;;23.74;63.57
12203;BME280;6164;42.178;24.622;2023-05-23T15:26:23;99123.47;;;23.67;63.81
12203;BME280;6164;42.178;24.622;2023-05-23T15:28:50;99127.66;;;23.48;66.02
12203;BME280;6164;42.178;24.622;2023-05-23T15:31:16;99133.78;;;23.33;64.95
12203;BME280;6164;42.178;24.622;2023-05-23T15:33:43;99128.88;;;23.25;68.07
12203;BME280;6164;42.178;24.622;2023-05-23T15:36:10;99136.88;;;23.57;68.59
12203;BME280;6164;42.178;24.622;2023-05-23T15:38:37;99145.50;;;23.64;68.22
12203;BME280;6164;42.178;24.622;2023-05-23T15:41:04;99155.31;;;23.85;67.71
12203;BME280;6164;42.178;24.622;2023-05-23T15:43:33;99161.06;;;24.04;70.18
12203;BME280;6164;42.178;24.622;2023-05-23T15:46:00;99177.56;;;24.17;69.31
12203;BME280;6164;42.178;24.622;2023-05-23T15:48:27;99192.94;;;24.27;63.89
12203;BME280;6164;42.178;24.622;2023-05-23T15:50:54;99191.63;;;24.39;64.15
12203;BME280;6164;42.178;24.622;2023-05-23T15:53:21;99195.41;;;24.48;65.46
12203;BME280;6164;42.178;24.622;2023-05-23T15:55:47;99165.44;;;24.35;61.96
12203;BME280;6164;42.178;24.622;2023-05-23T15:58:14;99184.91;;;24.67;65.51
12203;BME280;6164;42.178;24.622;2023-05-23T16:00:42;99187.09;;;24.70;65.26
12203;BME280;6164;42.178;24.622;2023-05-23T16:03:09;99180.09;;;24.74;67.00
12203;BME280;6164;42.178;24.622;2023-05-23T16:05:35;99172.28;;;24.78;68.81
12203;BME280;6164;42.178;24.622;2023-05-23T16:08:02;99179.84;;;24.81;69.09
12203;BME280;6164;42.178;24.622;2023-05-23T16:10:29;99189.00;;;24.85;68.09
12203;BME280;6164;42.178;24.622;2023-05-23T16:12:56;99196.53;;;24.88;66.82
12203;BME280;6164;42.178;24.622;2023-05-23T16:15:25;99189.00;;;24.90;64.71
12203;BME280;6164;42.178;24.622;2023-05-23T16:17:53;99166.06;;;24.87;64.92
12203;BME280;6164;42.178;24.622;2023-05-23T16:20:20;99184.13;;;25.02;64.88
12203;BME280;6164;42.178;24.622;2023-05-23T16:22:47;99178.47;;;24.98;64.88
12203;BME280;6164;42.178;24.622;2023-05-23T16:25:13;99181.69;;;25.10;65.73
12203;BME280;6164;42.178;24.622;2023-05-23T16:27:40;99195.47;;;25.24;66.20
12203;BME280;6164;42.178;24.622;2023-05-23T16:30:07;99196.53;;;25.38;64.97
12203;BME280;6164;42.178;24.622;2023-05-23T16:32:34;99200.56;;;25.50;64.01
12203;BME280;6164;42.178;24.622;2023-05-23T16:35:03;99208.38;;;25.57;63.34
12203;BME280;6164;42.178;24.622;2023-05-23T16:37:30;99196.19;;;25.64;64.12